Time;durP1;ratioP1;P1;durP2;ratioP2;P2;SDS_P1;SDS_P2;PMS_P1;PMS_P2;Temp;Humidity;BMP_temperature;BMP_pressure;BME280_temperature;BME280_humidity;BME280_pressure;Samples;Min_cycle;Max_cycle;Signal;HPM_P1;HPM_P2
2023/08/08 00:01:55;;;;;;;1.83;1.33;;;14.00;99.90;;;;;;6229494;23;20391;-71
2023/08/08 00:04:21;;;;;;;1.43;1.07;;;14.00;99.90;;;;;;6227197;23;20353;-71
2023/08/08 00:06:46;;;;;;;2.00;1.50;;;14.00;99.90;;;;;;6225786;23;20426;-71
2023/08/08 00:09:12;;;;;;;2.83;1.67;;;13.90;99.90;;;;;;6225978;23;20176;-71
2023/08/08 00:11:37;;;;;;;2.80;1.60;;;13.90;99.90;;;;;;6225488;23;20494;-71
2023/08/08 00:14:03;;;;;;;2.40;1.47;;;13.90;99.90;;;;;;6225764;23;20142;-70
2023/08/08 00:16:28;;;;;;;4.90;1.60;;;13.90;99.90;;;;;;6198834;23;20168;-71
2023/08/08 00:18:54;;;;;;;2.40;1.67;;;13.80;99.90;;;;;;6224947;23;20129;-70
2023/08/08 00:21:21;;;;;;;2.17;1.57;;;13.80;99.90;;;;;;6198609;23;20257;-70
2023/08/08 00:23:46;;;;;;;2.80;1.87;;;13.70;99.90;;;;;;6225986;23;20165;-71
2023/08/08 00:26:12;;;;;;;1.87;1.53;;;13.60;99.90;;;;;;6200906;23;20372;-69
2023/08/08 00:28:38;;;;;;;3.63;1.33;;;13.60;99.90;;;;;;6200915;23;20129;-70
2023/08/08 00:31:03;;;;;;;2.70;1.77;;;13.50;99.90;;;;;;6224415;23;20402;-69
2023/08/08 00:33:29;;;;;;;2.90;1.60;;;13.50;99.90;;;;;;6175036;23;20208;-70
2023/08/08 00:35:55;;;;;;;2.30;1.67;;;13.40;99.90;;;;;;6225181;23;20168;-70
2023/08/08 00:38:20;;;;;;;2.93;1.80;;;13.40;99.90;;;;;;6198943;23;20499;-71
2023/08/08 00:40:46;;;;;;;1.80;1.43;;;13.30;99.90;;;;;;6199618;23;20209;-73
2023/08/08 00:43:12;;;;;;;2.50;1.50;;;13.20;99.90;;;;;;6175857;23;20145;-73
2023/08/08 00:45:39;;;;;;;3.43;1.50;;;13.20;99.90;;;;;;6176299;23;20206;-70
2023/08/08 00:48:05;;;;;;;2.60;2.40;;;13.10;99.90;;;;;;6176003;23;20381;-71
2023/08/08 00:50:31;;;;;;;5.10;2.13;;;13.10;99.90;;;;;;6200857;23;20697;-70
2023/08/08 00:52:57;;;;;;;3.60;1.63;;;13.10;99.90;;;;;;6226914;23;20441;-71
2023/08/08 00:55:23;;;;;;;1.70;1.53;;;13.00;99.90;;;;;;6225961;23;20431;-71
2023/08/08 00:57:49;;;;;;;4.93;1.87;;;13.00;99.90;;;;;;6199890;23;20145;-70
2023/08/08 01:00:14;;;;;;;2.00;1.50;;;13.00;99.90;;;;;;6198690;23;20450;-72
2023/08/08 01:02:40;;;;;;;2.60;1.73;;;13.10;99.90;;;;;;6199027;23;20134;-72
2023/08/08 01:05:07;;;;;;;2.03;1.73;;;13.00;99.90;;;;;;6228182;23;20190;-70
2023/08/08 01:07:41;;;;;;;4.00;2.60;;;13.10;99.90;;;;;;6201773;23;20134;-69
2023/08/08 01:10:11;;;;;;;5.90;2.30;;;13.10;99.90;;;;;;6226179;23;20449;-69
2023/08/08 01:12:44;;;;;;;2.90;2.23;;;13.00;99.90;;;;;;6225086;23;20359;-72
2023/08/08 01:15:11;;;;;;;3.00;2.30;;;13.00;99.90;;;;;;6198736;23;20372;-70
2023/08/08 01:17:38;;;;;;;3.20;2.50;;;13.00;99.90;;;;;;6175114;23;20820;-71
2023/08/08 01:20:05;;;;;;;2.87;2.13;;;13.00;99.90;;;;;;6224493;23;20426;-70
2023/08/08 01:22:39;;;;;;;2.93;1.90;;;13.00;99.90;;;;;;6226583;23;20414;-70
2023/08/08 01:25:05;;;;;;;2.17;1.80;;;13.00;99.90;;;;;;6224066;23;20396;-69
2023/08/08 01:27:31;;;;;;;2.27;2.07;;;13.00;99.90;;;;;;6223426;23;20373;-70
2023/08/08 01:29:56;;;;;;;2.87;2.20;;;13.00;99.90;;;;;;6197104;23;20692;-73
2023/08/08 01:32:22;;;;;;;1.70;1.30;;;13.10;99.90;;;;;;6196613;23;20446;-71
2023/08/08 01:34:48;;;;;;;2.57;2.00;;;13.10;99.90;;;;;;6196996;23;20367;-71
2023/08/08 01:37:19;;;;;;;3.23;1.90;;;13.10;99.90;;;;;;6222249;23;20166;-68
2023/08/08 01:39:46;;;;;;;2.33;1.63;;;13.10;99.90;;;;;;6228074;23;20233;-73
2023/08/08 01:42:15;;;;;;;4.43;2.37;;;13.10;99.90;;;;;;6202041;23;20416;-71
2023/08/08 01:44:41;;;;;;;2.50;2.17;;;13.10;99.90;;;;;;6203948;23;20378;-69
2023/08/08 01:47:08;;;;;;;3.20;1.63;;;13.10;99.90;;;;;;6201945;23;20371;-70
2023/08/08 01:49:34;;;;;;;2.37;1.67;;;13.10;99.90;;;;;;6177282;23;20553;-70
2023/08/08 01:52:00;;;;;;;3.03;2.00;;;13.10;99.90;;;;;;6197692;23;20414;-69
2023/08/08 01:54:26;;;;;;;2.73;1.80;;;13.10;99.90;;;;;;6224937;23;20528;-70
2023/08/08 01:56:51;;;;;;;2.73;1.70;;;13.10;99.90;;;;;;6197133;23;20403;-69
2023/08/08 01:59:17;;;;;;;2.73;1.90;;;13.10;99.90;;;;;;6196905;23;20145;-70
2023/08/08 02:01:43;;;;;;;3.27;2.30;;;13.10;99.90;;;;;;6197629;23;20532;-69
2023/08/08 02:04:08;;;;;;;3.20;1.70;;;13.20;99.90;;;;;;6196648;23;20153;-70
2023/08/08 02:06:34;;;;;;;3.60;1.73;;;13.20;99.90;;;;;;6197836;23;20149;-70
2023/08/08 02:08:59;;;;;;;5.97;2.30;;;13.10;99.90;;;;;;6199156;23;20177;-69
2023/08/08 02:11:25;;;;;;;3.43;2.07;;;13.10;99.90;;;;;;6200555;23;20174;-69
2023/08/08 02:13:50;;;;;;;2.80;1.87;;;13.00;99.90;;;;;;6205718;23;20140;-70
2023/08/08 02:16:16;;;;;;;2.17;1.90;;;13.10;99.90;;;;;;6226131;23;20168;-70
2023/08/08 02:18:42;;;;;;;3.03;2.07;;;12.90;99.90;;;;;;6198164;23;20146;-71
2023/08/08 02:21:08;;;;;;;2.80;1.80;;;12.80;99.90;;;;;;6228190;23;20186;-70
2023/08/08 02:23:34;;;;;;;3.10;2.17;;;12.80;99.90;;;;;;6226502;23;20134;-70
2023/08/08 02:25:59;;;;;;;2.20;1.93;;;12.70;99.90;;;;;;6226090;23;20432;-70
2023/08/08 02:28:25;;;;;;;6.83;2.47;;;12.60;99.90;;;;;;6197085;23;20507;-70
2023/08/08 02:30:52;;;;;;;4.90;2.30;;;12.60;99.90;;;;;;6197233;23;20441;-69
2023/08/08 02:33:19;;;;;;;3.93;1.80;;;12.50;99.90;;;;;;6225033;23;20122;-70
2023/08/08 02:35:46;;;;;;;2.87;1.70;;;12.50;99.90;;;;;;6197330;23;20413;-73
2023/08/08 02:38:12;;;;;;;3.17;2.23;;;12.40;99.90;;;;;;6197705;23;20442;-69
2023/08/08 02:40:39;;;;;;;4.37;2.47;;;12.40;99.90;;;;;;6224077;23;20735;-70
2023/08/08 02:43:06;;;;;;;4.83;2.37;;;12.40;99.90;;;;;;6172680;23;20742;-69
2023/08/08 02:45:32;;;;;;;3.40;2.60;;;12.40;99.90;;;;;;6224913;23;20463;-69
2023/08/08 02:47:59;;;;;;;3.90;2.50;;;12.40;99.90;;;;;;6197668;23;20149;-70
2023/08/08 02:50:27;;;;;;;3.23;1.93;;;12.40;99.90;;;;;;6199527;23;20181;-69
2023/08/08 02:52:53;;;;;;;3.60;2.10;;;12.30;99.90;;;;;;6198170;23;20721;-70
2023/08/08 02:55:21;;;;;;;3.50;2.10;;;12.30;99.90;;;;;;6196855;23;20192;-70
2023/08/08 02:57:50;;;;;;;4.23;2.53;;;12.30;99.90;;;;;;6197091;23;20407;-70
2023/08/08 03:00:15;;;;;;;4.60;2.93;;;12.30;99.90;;;;;;6196441;23;20804;-69
2023/08/08 03:02:45;;;;;;;3.50;2.30;;;12.20;99.90;;;;;;6196878;23;20157;-71
2023/08/08 03:05:11;;;;;;;3.40;1.87;;;12.20;99.90;;;;;;6173083;23;20361;-69
2023/08/08 03:07:37;;;;;;;2.60;2.30;;;12.20;99.90;;;;;;6200331;23;20401;-71
2023/08/08 03:10:04;;;;;;;5.03;2.23;;;12.20;99.90;;;;;;6199658;23;20401;-70
2023/08/08 03:12:32;;;;;;;2.17;1.77;;;12.20;99.90;;;;;;6196755;23;20145;-71
2023/08/08 03:14:58;;;;;;;3.00;1.80;;;12.20;99.90;;;;;;6196415;23;20384;-70
2023/08/08 03:17:24;;;;;;;2.80;2.00;;;12.20;99.90;;;;;;6199205;23;20421;-69
2023/08/08 03:19:50;;;;;;;2.90;1.90;;;12.20;99.90;;;;;;6195981;23;20169;-70
2023/08/08 03:22:15;;;;;;;5.63;2.00;;;12.10;99.90;;;;;;6224312;23;20384;-71
2023/08/08 03:24:41;;;;;;;2.70;1.60;;;12.10;99.90;;;;;;6202467;23;20189;-70
2023/08/08 03:27:07;;;;;;;3.77;1.90;;;12.10;99.90;;;;;;6173309;23;20145;-71
2023/08/08 03:29:33;;;;;;;4.73;1.87;;;12.00;99.90;;;;;;6198241;23;20180;-71
2023/08/08 03:31:59;;;;;;;1.83;1.30;;;12.00;99.90;;;;;;6171620;23;20373;-70
2023/08/08 03:34:27;;;;;;;2.30;1.67;;;12.00;99.90;;;;;;6196077;23;20147;-69
2023/08/08 03:36:53;;;;;;;10.80;2.63;;;12.00;99.90;;;;;;6197208;23;20423;-70
2023/08/08 03:39:19;;;;;;;6.13;2.20;;;12.00;99.90;;;;;;6196693;23;20155;-70
2023/08/08 03:41:44;;;;;;;3.50;2.03;;;12.10;99.90;;;;;;6196029;23;20667;-69
2023/08/08 03:44:10;;;;;;;4.27;1.80;;;12.10;99.90;;;;;;6197132;23;20469;-70
2023/08/08 03:46:35;;;;;;;3.57;2.20;;;12.10;99.90;;;;;;6220666;23;20146;-70
2023/08/08 03:49:01;;;;;;;4.07;2.20;;;12.10;99.90;;;;;;6169174;23;20181;-71
2023/08/08 03:51:26;;;;;;;3.70;1.93;;;12.10;99.90;;;;;;6193416;23;20182;-71
2023/08/08 03:53:52;;;;;;;5.50;2.00;;;12.10;99.90;;;;;;6170405;23;20220;-71
2023/08/08 03:56:18;;;;;;;3.80;1.57;;;12.20;99.90;;;;;;6221137;23;20163;-70
2023/08/08 03:58:43;;;;;;;4.07;2.67;;;12.10;99.90;;;;;;6194346;23;20149;-70
2023/08/08 04:01:09;;;;;;;7.23;2.20;;;12.20;99.90;;;;;;6194343;23;20627;-71
2023/08/08 04:03:35;;;;;;;4.40;2.10;;;12.10;99.90;;;;;;6196102;23;20150;-70
2023/08/08 04:06:01;;;;;;;2.10;1.60;;;12.20;99.90;;;;;;6222079;23;20138;-70
2023/08/08 04:08:26;;;;;;;4.83;1.90;;;12.20;99.90;;;;;;6194423;23;20143;-72
2023/08/08 04:10:52;;;;;;;2.67;1.80;;;12.20;99.90;;;;;;6219956;23;20404;-71
2023/08/08 04:13:17;;;;;;;4.90;2.60;;;12.20;99.90;;;;;;6170267;23;20152;-71
2023/08/08 04:15:43;;;;;;;5.20;1.97;;;12.20;99.90;;;;;;6193913;23;20206;-71
2023/08/08 04:18:09;;;;;;;3.10;2.07;;;12.20;99.90;;;;;;6220840;23;20192;-71
2023/08/08 04:20:35;;;;;;;4.83;2.20;;;12.20;99.90;;;;;;6222574;23;20737;-72
2023/08/08 04:23:00;;;;;;;2.70;1.73;;;12.30;99.90;;;;;;6194387;23;20573;-68
2023/08/08 04:25:26;;;;;;;4.37;2.10;;;12.30;99.90;;;;;;6221473;23;20213;-71
2023/08/08 04:27:52;;;;;;;3.43;2.40;;;12.30;99.90;;;;;;6221610;23;20166;-71
2023/08/08 04:30:17;;;;;;;5.07;2.60;;;12.30;99.90;;;;;;6196601;23;20393;-69
2023/08/08 04:32:43;;;;;;;3.50;2.40;;;12.40;99.90;;;;;;6223129;23;20522;-72
2023/08/08 04:35:08;;;;;;;9.50;4.27;;;12.40;99.90;;;;;;6222243;23;20145;-71
2023/08/08 04:37:34;;;;;;;5.00;2.67;;;12.40;99.90;;;;;;6221204;23;20170;-69
2023/08/08 04:39:59;;;;;;;4.43;2.83;;;12.50;99.90;;;;;;6221414;23;20211;-73
2023/08/08 04:42:25;;;;;;;2.40;1.93;;;12.50;99.90;;;;;;6222585;23;20136;-69
2023/08/08 04:44:51;;;;;;;3.17;2.30;;;12.50;99.90;;;;;;6221965;23;20130;-71
2023/08/08 04:47:16;;;;;;;3.40;2.13;;;12.50;99.90;;;;;;6196671;23;20174;-71
2023/08/08 04:49:42;;;;;;;3.87;2.70;;;12.50;99.90;;;;;;6225094;23;20159;-70
2023/08/08 04:52:07;;;;;;;3.87;2.60;;;12.50;99.90;;;;;;6198297;23;20222;-72
2023/08/08 04:54:33;;;;;;;2.30;2.00;;;12.50;99.90;;;;;;6224488;23;20139;-71
2023/08/08 04:56:58;;;;;;;5.40;2.93;;;12.60;99.90;;;;;;6225142;23;20165;-71
2023/08/08 04:59:24;;;;;;;3.57;2.10;;;12.60;99.90;;;;;;6225109;23;20164;-72
2023/08/08 05:01:50;;;;;;;5.83;3.13;;;12.70;99.90;;;;;;6225816;23;20126;-72
2023/08/08 05:04:17;;;;;;;5.80;2.63;;;12.80;99.90;;;;;;6174839;23;20231;-72
2023/08/08 05:06:43;;;;;;;5.77;2.70;;;12.80;99.90;;;;;;6226545;23;20138;-71
2023/08/08 05:09:09;;;;;;;5.47;3.00;;;12.90;99.90;;;;;;6225232;23;20371;-71
2023/08/08 05:11:35;;;;;;;6.50;3.00;;;13.10;99.90;;;;;;6198904;23;20252;-71
2023/08/08 05:14:01;;;;;;;5.23;3.10;;;13.30;99.90;;;;;;6227632;23;20415;-72
2023/08/08 05:16:27;;;;;;;5.83;3.40;;;13.40;99.90;;;;;;6202604;23;20408;-71
2023/08/08 05:18:52;;;;;;;4.13;3.03;;;13.60;99.90;;;;;;6231677;23;20136;-70
2023/08/08 05:21:18;;;;;;;4.53;3.37;;;13.70;99.90;;;;;;6234497;23;20172;-72
2023/08/08 05:23:44;;;;;;;4.37;2.90;;;13.80;99.90;;;;;;6207883;23;20168;-73
2023/08/08 05:26:12;;;;;;;6.43;3.37;;;13.90;99.90;;;;;;6233617;23;20366;-72
2023/08/08 05:28:38;;;;;;;4.40;3.80;;;14.10;99.90;;;;;;6232613;23;20143;-71
2023/08/08 05:31:04;;;;;;;4.27;3.63;;;14.20;99.90;;;;;;6206032;23;20483;-73
2023/08/08 05:33:29;;;;;;;4.60;2.90;;;14.20;99.90;;;;;;6229143;23;20134;-75
2023/08/08 05:35:55;;;;;;;8.33;3.20;;;14.40;99.90;;;;;;6232581;23;20229;-74
2023/08/08 05:38:21;;;;;;;5.53;3.40;;;14.50;99.90;;;;;;6203702;23;20381;-71
2023/08/08 05:40:47;;;;;;;3.77;2.93;;;14.60;99.90;;;;;;6231389;23;20185;-72
2023/08/08 05:43:16;;;;;;;7.93;5.77;;;14.80;99.90;;;;;;6232823;23;20130;-74
2023/08/08 05:45:44;;;;;;;7.77;4.90;;;14.90;99.90;;;;;;6206541;23;20192;-71
2023/08/08 05:48:12;;;;;;;8.33;4.03;;;15.00;99.90;;;;;;6203900;23;20384;-74
2023/08/08 05:50:38;;;;;;;5.50;3.07;;;15.20;99.90;;;;;;6178316;23;20415;-75
2023/08/08 05:53:05;;;;;;;7.57;3.93;;;15.40;99.90;;;;;;6230925;23;20422;-72
2023/08/08 05:55:30;;;;;;;7.30;3.13;;;15.60;99.90;;;;;;6229929;23;20401;-73
2023/08/08 05:57:56;;;;;;;4.50;3.23;;;15.60;99.90;;;;;;6206620;23;20153;-73
2023/08/08 06:00:22;;;;;;;3.87;2.97;;;15.70;99.90;;;;;;6234145;23;20162;-71
2023/08/08 06:02:48;;;;;;;6.10;3.30;;;16.00;99.90;;;;;;6208476;23;20147;-73
2023/08/08 06:05:16;;;;;;;4.60;2.50;;;16.50;99.90;;;;;;6181796;23;20400;-71
2023/08/08 06:07:41;;;;;;;10.50;3.30;;;16.80;99.90;;;;;;6207400;23;20141;-75
2023/08/08 06:10:08;;;;;;;4.13;3.30;;;17.00;99.90;;;;;;6234557;23;20460;-76
2023/08/08 06:12:33;;;;;;;6.37;3.63;;;17.30;99.90;;;;;;6204149;23;20135;-71
2023/08/08 06:14:59;;;;;;;6.03;3.90;;;17.60;99.90;;;;;;6204231;23;20847;-71
2023/08/08 06:17:25;;;;;;;5.37;2.90;;;17.80;99.90;;;;;;6232228;23;20158;-73
2023/08/08 06:19:50;;;;;;;6.70;3.30;;;17.90;99.90;;;;;;6230007;23;20161;-72
2023/08/08 06:22:16;;;;;;;6.93;3.13;;;17.90;99.90;;;;;;6178507;23;20171;-73
2023/08/08 06:24:42;;;;;;;7.20;4.47;;;17.80;99.90;;;;;;6232956;23;20183;-72
2023/08/08 06:27:08;;;;;;;11.23;3.80;;;17.70;99.90;;;;;;6180650;23;20150;-72
2023/08/08 06:29:33;;;;;;;9.40;3.60;;;17.50;99.90;;;;;;6206219;23;20226;-73
2023/08/08 06:32:02;;;;;;;10.43;4.30;;;17.50;99.90;;;;;;6230622;23;20140;-71
2023/08/08 06:34:27;;;;;;;6.07;2.90;;;17.40;99.90;;;;;;6230316;23;20409;-71
2023/08/08 06:36:53;;;;;;;10.60;3.87;;;17.50;99.90;;;;;;6208214;23;20400;-74
2023/08/08 06:39:21;;;;;;;5.80;2.93;;;17.40;99.90;;;;;;6233498;23;20141;-72
2023/08/08 06:41:47;;;;;;;5.87;3.23;;;17.40;99.90;;;;;;6229213;23;20515;-76
2023/08/08 06:44:19;;;;;;;3.50;2.80;;;17.50;99.90;;;;;;6203018;23;20619;-73
2023/08/08 06:46:45;;;;;;;4.77;2.70;;;17.50;99.90;;;;;;6182517;23;20388;-75
2023/08/08 06:49:10;;;;;;;5.50;2.70;;;17.60;99.90;;;;;;6233012;23;20360;-73
2023/08/08 06:51:38;;;;;;;6.70;2.93;;;17.70;99.90;;;;;;6235056;23;20157;-73
2023/08/08 06:54:04;;;;;;;6.97;2.80;;;17.80;99.90;;;;;;6183188;23;20145;-72
2023/08/08 06:56:30;;;;;;;7.83;3.03;;;17.80;99.90;;;;;;6185157;23;20495;-75
2023/08/08 06:58:55;;;;;;;5.40;2.73;;;17.80;99.90;;;;;;6208767;23;20145;-73
2023/08/08 07:01:21;;;;;;;4.63;2.37;;;17.80;99.90;;;;;;6210636;23;20212;-74
2023/08/08 07:03:48;;;;;;;4.63;2.70;;;17.90;99.60;;;;;;6211340;23;20220;-74
2023/08/08 07:06:15;;;;;;;8.40;2.40;;;18.00;98.50;;;;;;6184061;23;20173;-76
2023/08/08 07:08:42;;;;;;;5.57;2.53;;;17.90;99.20;;;;;;6208807;23;20365;-73
2023/08/08 07:11:08;;;;;;;5.43;3.17;;;18.10;98.10;;;;;;6206866;23;20411;-75
2023/08/08 07:13:33;;;;;;;8.13;2.87;;;18.30;97.40;;;;;;6233508;23;20436;-74
2023/08/08 07:15:59;;;;;;;10.90;2.77;;;18.50;95.00;;;;;;6232445;23;20161;-77
2023/08/08 07:18:25;;;;;;;5.13;2.50;;;18.50;93.10;;;;;;6203841;23;20494;-77
2023/08/08 07:20:50;;;;;;;10.10;3.20;;;18.40;93.80;;;;;;6203122;23;20632;-72
2023/08/08 07:23:16;;;;;;;4.13;2.67;;;18.30;93.70;;;;;;6205283;23;20138;-72
2023/08/08 07:25:42;;;;;;;10.17;3.50;;;18.30;94.20;;;;;;6154743;23;20420;-76
2023/08/08 07:28:11;;;;;;;8.30;3.90;;;18.10;95.00;;;;;;6238628;23;20158;-78
2023/08/08 07:30:38;;;;;;;9.10;3.47;;;17.90;96.60;;;;;;6211845;23;20392;-75
2023/08/08 07:33:10;;;;;;;13.60;3.83;;;17.80;98.30;;;;;;6210826;23;20391;-75
2023/08/08 07:35:36;;;;;;;9.67;3.80;;;17.80;98.70;;;;;;6211891;23;20421;-78
2023/08/08 07:38:05;;;;;;;12.60;3.93;;;17.70;99.00;;;;;;6187235;23;20369;-75
2023/08/08 07:47:18;;;;;;;7.40;3.00;;;17.70;99.50;;;;;;6215458;23;20431;-77
2023/08/08 07:50:10;;;;;;;11.93;3.70;;;18.00;97.00;;;;;;6216703;23;20391;-74
2023/08/08 07:53:06;;;;;;;4.63;3.20;;;18.10;97.40;;;;;;6141525;23;20383;-78
2023/08/08 07:55:34;;;;;;;9.67;4.60;;;18.40;97.10;;;;;;6190643;23;20470;-77
2023/08/08 07:58:04;;;;;;;10.73;4.00;;;18.70;93.50;;;;;;6180968;23;20392;-75
2023/08/08 08:00:53;;;;;;;6.60;3.07;;;18.80;92.20;;;;;;6158664;23;20467;-77
2023/08/08 08:03:44;;;;;;;14.97;4.30;;;19.00;91.40;;;;;;6158599;23;20382;-76
2023/08/08 08:06:19;;;;;;;11.70;4.37;;;19.10;90.40;;;;;;6186551;23;20358;-74
2023/08/08 08:08:46;;;;;;;9.60;4.43;;;19.00;90.20;;;;;;6181796;23;20416;-76
2023/08/08 08:11:16;;;;;;;3.93;2.90;;;18.80;90.30;;;;;;6207447;23;20481;-74
2023/08/08 08:14:04;;;;;;;9.37;4.10;;;18.70;91.20;;;;;;6171716;23;20444;-76
2023/08/08 08:16:41;;;;;;;10.97;4.20;;;18.60;92.20;;;;;;6214276;23;20409;-76
2023/08/08 08:19:08;;;;;;;7.37;3.80;;;18.50;92.90;;;;;;6211002;23;20416;-78
2023/08/08 08:21:56;;;;;;;14.10;4.37;;;18.60;93.00;;;;;;6124468;23;20367;-74
2023/08/08 08:24:23;;;;;;;4.67;3.83;;;18.80;91.80;;;;;;6145227;23;20426;-75
2023/08/08 08:26:50;;;;;;;7.70;4.00;;;19.00;90.90;;;;;;6146444;23;20376;-75
2023/08/08 08:29:17;;;;;;;7.93;3.80;;;19.10;90.30;;;;;;6148563;23;20514;-74
2023/08/08 08:31:43;;;;;;;16.47;4.30;;;19.20;90.10;;;;;;6146384;23;20151;-75
2023/08/08 08:34:10;;;;;;;8.23;4.37;;;19.20;88.40;;;;;;6126096;23;20379;-76
2023/08/08 08:36:40;;;;;;;7.63;4.00;;;19.10;86.80;;;;;;6067052;23;20359;-76
2023/08/08 08:39:06;;;;;;;9.00;4.77;;;18.80;86.70;;;;;;6090342;23;20381;-77
2023/08/08 08:41:37;;;;;;;8.30;4.10;;;18.60;90.00;;;;;;6043257;23;20425;-75
2023/08/08 08:44:04;;;;;;;7.70;4.50;;;18.40;90.40;;;;;;6039558;23;20397;-75
2023/08/08 08:46:30;;;;;;;10.27;4.70;;;18.10;92.10;;;;;;6089909;23;20381;-74
2023/08/08 08:48:59;;;;;;;8.60;3.47;;;18.10;93.10;;;;;;6064151;23;20361;-76
2023/08/08 08:51:27;;;;;;;14.27;3.70;;;18.20;91.80;;;;;;6020091;23;20462;-74
2023/08/08 08:54:02;;;;;;;5.33;3.50;;;18.20;91.50;;;;;;6099570;23;20391;-78
2023/08/08 08:56:30;;;;;;;10.07;5.60;;;18.10;89.90;;;;;;6125421;23;20427;-76
2023/08/08 08:58:58;;;;;;;3.70;2.90;;;18.10;90.30;;;;;;6100973;23;20379;-78
2023/08/08 09:01:28;;;;;;;8.13;4.47;;;18.10;89.80;;;;;;6124850;23;20447;-76
2023/08/08 09:04:02;;;;;;;11.63;3.90;;;18.30;88.50;;;;;;6123906;23;20467;-76
2023/08/08 09:06:30;;;;;;;6.47;3.50;;;18.50;85.60;;;;;;6097590;23;20403;-77
2023/08/08 09:09:22;;;;;;;8.90;3.57;;;18.50;84.40;;;;;;6078213;23;20375;-77
2023/08/08 09:11:56;;;;;;;8.60;4.43;;;18.70;85.10;;;;;;6122551;23;20371;-75
2023/08/08 09:14:52;;;;;;;3.93;3.23;;;18.80;83.50;;;;;;6097895;23;20415;-77
2023/08/08 09:17:48;;;;;;;6.83;3.40;;;18.90;82.50;;;;;;6123039;23;20471;-76
2023/08/08 09:20:17;;;;;;;11.00;3.90;;;19.00;80.80;;;;;;6101799;23;20456;-78
2023/08/08 09:26:10;;;;;;;4.13;3.20;;;18.90;79.20;;;;;;6223606;23;20455;-77
2023/08/08 09:28:41;;;;;;;6.77;4.27;;;19.00;78.20;;;;;;6159926;23;20385;-77
2023/08/08 09:33:44;;;;;;;8.40;3.27;;;19.30;76.10;;;;;;6180013;23;20457;-77
2023/08/08 09:36:16;;;;;;;8.07;3.60;;;19.40;75.40;;;;;;6150928;23;20373;-74
2023/08/08 09:38:43;;;;;;;6.30;3.27;;;19.70;74.80;;;;;;6130978;23;20147;-76
2023/08/08 09:41:08;;;;;;;5.20;3.00;;;19.90;73.30;;;;;;6129661;23;20410;-75
2023/08/08 09:43:35;;;;;;;6.23;3.33;;;20.20;71.20;;;;;;6131608;23;20143;-74
2023/08/08 09:46:02;;;;;;;4.13;3.13;;;20.20;68.50;;;;;;6154220;23;20245;-74
2023/08/08 09:48:32;;;;;;;7.50;3.30;;;20.30;68.20;;;;;;6152194;23;20366;-73
2023/08/08 09:51:02;;;;;;;6.70;3.77;;;20.30;69.10;;;;;;6178342;23;20401;-74
2023/08/08 09:53:29;;;;;;;7.93;3.40;;;20.40;67.90;;;;;;6130537;23;20460;-75
2023/08/08 09:56:07;;;;;;;7.00;3.20;;;20.70;67.40;;;;;;6129129;23;20390;-79
2023/08/08 09:58:40;;;;;;;4.73;2.53;;;20.80;65.30;;;;;;6106631;23;20373;-77
2023/08/08 10:01:16;;;;;;;6.50;2.97;;;20.90;63.40;;;;;;6145067;23;20446;-76
2023/08/08 10:06:47;;;;;;;8.20;3.77;;;20.80;63.10;;;;;;6238637;23;20444;-76
2023/08/08 10:12:11;;;;;;;7.23;3.30;;;20.30;64.40;;;;;;6221386;23;20515;-77
2023/08/08 10:14:41;;;;;;;6.37;2.93;;;20.00;64.80;;;;;;6191216;23;20412;-75
2023/08/08 10:17:14;;;;;;;6.10;3.27;;;20.00;66.10;;;;;;6165011;23;20436;-74
2023/08/08 10:20:17;;;;;;;8.60;3.30;;;20.20;64.70;;;;;;6150806;23;20878;-76
2023/08/08 10:22:45;;;;;;;5.63;3.13;;;20.30;64.30;;;;;;6124971;23;20376;-75
2023/08/08 10:25:27;;;;;;;5.80;3.23;;;20.60;61.60;;;;;;6148156;23;20362;-75
2023/08/08 10:28:36;;;;;;;4.27;2.63;;;20.70;59.80;;;;;;6147825;23;20705;-76
2023/08/08 10:32:12;;;;;;;5.60;3.43;;;20.90;58.80;;;;;;6148961;23;20472;-77
2023/08/08 10:35:00;;;;;;;10.63;3.30;;;20.80;59.00;;;;;;6149554;23;20407;-75
2023/08/08 10:40:49;;;;;;;9.60;2.70;;;21.10;59.50;;;;;;6221881;22;20459;-77
2023/08/08 10:43:36;;;;;;;8.17;2.80;;;21.70;58.00;;;;;;6216705;23;20385;-78
2023/08/08 10:48:53;;;;;;;7.20;2.40;;;22.10;56.00;;;;;;6222219;23;20445;-78
2023/08/08 10:51:19;;;;;;;3.60;2.43;;;22.10;56.50;;;;;;6191949;23;20417;-76
2023/08/08 11:02:14;;;;;;;6.83;3.70;;;21.50;56.50;;;;;;6235335;23;20452;-77
2023/08/08 11:04:57;;;;;;;5.33;2.53;;;21.30;57.40;;;;;;6190967;23;20373;-77
2023/08/08 11:07:24;;;;;;;6.40;2.60;;;21.40;57.10;;;;;;6214891;23;20395;-77
2023/08/08 11:10:11;;;;;;;4.87;2.80;;;21.60;57.20;;;;;;6191160;23;20400;-78
2023/08/08 11:12:40;;;;;;;7.30;3.03;;;21.50;56.70;;;;;;6172107;23;20401;-77
2023/08/08 11:27:04;;;;;;;4.80;2.40;;;21.20;57.60;;;;;;6229016;23;20438;-75
2023/08/08 11:36:36;;;;;;;7.50;2.53;;;21.50;56.70;;;;;;6128909;23;20415;-77
2023/08/08 11:39:11;;;;;;;3.90;1.90;;;21.60;55.90;;;;;;6127130;23;20395;-77
2023/08/08 11:41:48;;;;;;;6.60;2.43;;;21.70;55.40;;;;;;6075305;23;20417;-77
2023/08/08 11:49:42;;;;;;;8.67;2.30;;;21.70;54.80;;;;;;6180183;23;20446;-74
2023/08/08 11:52:12;;;;;;;7.20;2.07;;;21.50;55.30;;;;;;6153993;23;20382;-76
2023/08/08 11:55:02;;;;;;;6.10;2.10;;;21.10;55.40;;;;;;6156005;23;20379;-76
2023/08/08 11:57:36;;;;;;;5.20;2.70;;;20.80;56.20;;;;;;6117152;23;20469;-75
2023/08/08 12:00:12;;;;;;;6.60;2.63;;;20.70;56.10;;;;;;6174996;23;20458;-78
2023/08/08 12:03:04;;;;;;;3.70;1.73;;;20.50;56.50;;;;;;6187092;23;20366;-78
2023/08/08 12:05:50;;;;;;;7.07;2.40;;;20.40;56.90;;;;;;6208364;23;20390;-75
2023/08/08 12:08:43;;;;;;;6.17;2.80;;;20.40;57.30;;;;;;6163361;23;20449;-77
2023/08/08 12:11:14;;;;;;;4.47;2.97;;;20.60;57.60;;;;;;6187738;23;20406;-74
2023/08/08 12:13:42;;;;;;;3.40;2.20;;;20.60;57.30;;;;;;6184899;23;20378;-77
2023/08/08 12:22:34;;;;;;;5.40;3.10;;;20.90;55.60;;;;;;6234963;23;20450;-78
2023/08/08 12:25:00;;;;;;;7.37;2.90;;;21.20;55.20;;;;;;6187120;23;20825;-76
2023/08/08 12:27:28;;;;;;;5.47;2.20;;;21.30;54.50;;;;;;6183951;23;20377;-74
2023/08/08 12:30:06;;;;;;;3.83;2.00;;;21.20;53.90;;;;;;6137962;23;20381;-76
2023/08/08 12:32:35;;;;;;;6.23;2.47;;;21.10;54.20;;;;;;6210017;23;20400;-76
2023/08/08 12:35:03;;;;;;;4.90;1.93;;;21.10;53.90;;;;;;6183700;23;20345;-77
2023/08/08 12:37:30;;;;;;;5.17;2.30;;;21.10;54.40;;;;;;6184350;23;20414;-77
2023/08/08 12:40:22;;;;;;;4.27;1.90;;;21.10;54.50;;;;;;6187132;23;20394;-75
2023/08/08 12:43:09;;;;;;;4.17;2.10;;;21.00;55.00;;;;;;6186536;23;20406;-77
2023/08/08 12:45:34;;;;;;;6.53;2.87;;;20.80;55.90;;;;;;6137054;23;20382;-75
2023/08/08 12:48:00;;;;;;;6.23;2.20;;;20.80;56.40;;;;;;6210982;23;20431;-74
2023/08/08 12:50:28;;;;;;;10.53;2.80;;;20.80;55.90;;;;;;6214171;23;20174;-75
2023/08/08 12:53:13;;;;;;;8.50;2.50;;;20.70;55.80;;;;;;6200303;23;20193;-76
2023/08/08 12:58:59;;;;;;;8.00;2.30;;;20.00;57.30;;;;;;6219236;23;20499;-76
2023/08/08 13:06:50;;;;;;;6.60;2.30;;;19.40;57.70;;;;;;6237249;23;20436;-77
2023/08/08 13:09:23;;;;;;;4.27;2.50;;;19.50;59.30;;;;;;6218195;23;20408;-77
2023/08/08 13:11:50;;;;;;;13.17;3.80;;;19.50;62.20;;;;;;6167001;23;20481;-76
2023/08/08 13:17:38;;;;;;;9.40;3.50;;;19.40;68.70;;;;;;6212366;23;20485;-76
2023/08/08 13:20:04;;;;;;;8.23;4.10;;;19.40;71.20;;;;;;6163065;23;20440;-76
2023/08/08 13:22:42;;;;;;;8.13;3.10;;;19.20;73.90;;;;;;6160321;23;20381;-76
2023/08/08 13:25:35;;;;;;;4.77;2.50;;;19.30;68.60;;;;;;6138221;23;20378;-78
2023/08/08 13:32:05;;;;;;;4.30;1.97;;;19.40;66.00;;;;;;6229958;23;20431;-77
2023/08/08 13:34:30;;;;;;;11.37;2.10;;;19.50;63.40;;;;;;6215303;23;20404;-77
2023/08/08 13:37:23;;;;;;;4.00;1.93;;;19.70;62.10;;;;;;6218174;23;20397;-78
2023/08/08 13:40:29;;;;;;;6.33;2.50;;;19.90;59.60;;;;;;6241080;23;20185;-78
2023/08/08 13:43:08;;;;;;;4.00;2.40;;;20.10;59.10;;;;;;6217650;23;20372;-78
2023/08/08 13:45:46;;;;;;;4.23;2.40;;;20.30;58.10;;;;;;6168752;23;20465;-76
2023/08/08 13:48:39;;;;;;;5.30;2.33;;;20.50;57.70;;;;;;6192680;23;20389;-78
2023/08/08 13:53:36;;;;;;;4.30;2.10;;;20.80;57.30;;;;;;6186233;23;20468;-78
2023/08/08 14:34:39;;;;;;;2.90;1.83;;;21.00;58.00;;;;;;6217281;23;20444;-79
2023/08/08 15:17:30;;;;;;;4.60;2.30;;;21.20;56.90;;;;;;6202205;23;20423;-77
2023/08/08 15:22:37;;;;;;;6.40;2.40;;;21.40;56.50;;;;;;6160985;23;20428;-78
2023/08/08 15:28:18;;;;;;;4.20;2.10;;;21.50;57.10;;;;;;6240346;23;20444;-78
2023/08/08 15:30:50;;;;;;;4.90;2.37;;;21.50;56.60;;;;;;6191379;23;20404;-78
2023/08/08 15:33:39;;;;;;;;;;;;;;;;;;;;;
2023/08/08 15:36:26;;;;;;;3.73;1.97;;;21.50;56.50;;;;;;6200905;23;20435;-78
2023/08/08 15:38:55;;;;;;;6.23;2.07;;;21.70;56.50;;;;;;6215296;23;20389;-76
2023/08/08 15:41:29;;;;;;;4.37;1.83;;;21.90;56.40;;;;;;6213899;23;20404;-77
2023/08/08 15:44:16;;;;;;;4.23;1.77;;;21.90;56.50;;;;;;6216502;23;20384;-78
2023/08/08 15:46:48;;;;;;;4.47;1.80;;;21.90;56.40;;;;;;6188825;23;20381;-77
2023/08/08 15:52:04;;;;;;;6.03;2.30;;;22.10;55.70;;;;;;6231666;23;20436;-78